createdAt,value
2019-03-22T00:02:40.000Z,0.00
2019-03-22T00:12:57.706Z,0.00
2019-03-22T00:22:33.617Z,0.00
2019-03-22T00:32:49.764Z,0.00
2019-03-22T00:45:55.349Z,0.00
2019-03-22T00:46:53.513Z,0.00
2019-03-22T01:04:08.519Z,0.00
2019-03-22T01:05:05.153Z,0.00
2019-03-22T01:08:48.286Z,0.00
2019-03-22T01:22:07.155Z,0.00
2019-03-22T01:23:12.743Z,0.00
2019-03-22T01:29:04.686Z,0.00
2019-03-22T01:30:10.931Z,0.00
2019-03-22T01:42:15.557Z,0.00
2019-03-22T01:43:13.864Z,0.00
2019-03-22T01:48:13.782Z,0.00
2019-03-22T01:48:48.904Z,0.00
2019-03-22T01:49:47.427Z,0.00
2019-03-22T01:50:44.821Z,0.00
2019-03-22T01:53:48.248Z,0.00
2019-03-22T01:57:52.884Z,0.00
2019-03-22T01:58:44.714Z,0.00
2019-03-22T02:03:18.511Z,0.00
2019-03-22T02:10:16.721Z,0.00
2019-03-22T02:13:56.214Z,0.00
2019-03-22T02:17:49.086Z,0.00
2019-03-22T02:22:24.917Z,0.00
2019-03-22T02:23:20.594Z,0.00
2019-03-22T02:25:56.542Z,0.00
2019-03-22T02:28:03.278Z,0.00
2019-03-22T02:38:37.388Z,0.00
2019-03-22T02:42:12.188Z,0.00
2019-03-22T02:58:38.764Z,0.00
2019-03-22T02:59:42.806Z,0.00
2019-03-22T03:04:10.575Z,0.00
2019-03-22T03:14:53.886Z,0.00
2019-03-22T03:22:51.205Z,0.00
2019-03-22T03:23:50.048Z,0.00
2019-03-22T03:25:57.417Z,0.00
2019-03-22T03:32:27.658Z,0.00
2019-03-22T03:33:27.959Z,0.00
2019-03-22T03:34:28.171Z,0.00
2019-03-22T04:27:12.397Z,0.00
2019-03-22T04:48:01.388Z,0.00
2019-03-22T05:01:21.980Z,4.00
2019-03-22T05:03:17.130Z,4.00
2019-03-22T05:06:54.020Z,4.00
2019-03-22T05:07:50.263Z,4.00
2019-03-22T05:13:29.284Z,12.00
2019-03-22T05:14:30.887Z,12.00
2019-03-22T05:15:22.369Z,16.00
2019-03-22T05:16:20.230Z,16.00
2019-03-22T05:17:23.553Z,16.00
2019-03-22T05:31:48.932Z,52.00
2019-03-22T05:32:33.708Z,56.00
2019-03-22T05:33:33.721Z,64.00
2019-03-22T05:34:30.842Z,64.00
2019-03-22T05:35:35.695Z,68.00
2019-03-22T05:36:34.115Z,72.00
2019-03-22T05:37:33.255Z,72.00
2019-03-22T05:42:09.833Z,92.00
2019-03-22T05:43:08.674Z,100.00
2019-03-22T05:44:05.757Z,100.00
2019-03-22T05:45:04.785Z,104.00
2019-03-22T05:47:41.461Z,116.00
2019-03-22T05:48:33.947Z,124.00
2019-03-22T05:50:38.403Z,132.00
2019-03-22T05:51:36.964Z,136.00
2019-03-22T05:52:37.616Z,144.00
2019-03-22T05:54:34.564Z,152.00
2019-03-22T06:24:45.206Z,240.00
2019-03-22T12:24:46.330Z,2116.00
2019-03-22T12:25:21.038Z,2248.00
2019-03-22T12:26:20.931Z,2164.00
2019-03-22T14:48:48.615Z,1984.00
2019-03-22T14:49:48.321Z,1972.00
2019-03-22T14:50:48.314Z,1968.00
2019-03-22T14:59:23.735Z,1880.00
2019-03-22T15:00:23.724Z,1876.00
2019-03-22T15:01:23.620Z,1868.00
2019-03-22T15:04:23.400Z,1840.00
2019-03-22T15:05:23.200Z,1828.00
2019-03-22T15:06:23.186Z,1820.00
2019-03-22T15:07:23.098Z,1812.00
2019-03-22T15:08:23.039Z,1804.00
2019-03-22T15:09:22.961Z,1796.00
2019-03-22T15:10:22.872Z,1788.00
2019-03-22T15:11:22.858Z,1776.00
2019-03-22T15:12:22.760Z,1772.00
2019-03-22T15:13:22.680Z,1764.00
2019-03-22T15:14:22.599Z,1748.00
2019-03-22T15:15:22.642Z,1744.00
2019-03-22T15:16:22.482Z,1728.00
2019-03-22T15:17:22.427Z,1728.00
2019-03-22T15:18:22.234Z,1716.00
2019-03-22T15:19:22.201Z,1708.00
2019-03-22T15:20:22.112Z,1696.00
2019-03-22T15:21:22.104Z,1688.00
2019-03-22T15:22:22.116Z,1680.00
2019-03-22T15:23:22.005Z,1668.00
2019-03-22T15:24:21.855Z,1664.00
2019-03-22T15:25:21.795Z,1652.00
2019-03-22T15:26:21.669Z,1636.00
2019-03-22T15:27:21.702Z,1624.00
2019-03-22T15:28:21.589Z,1616.00
2019-03-22T15:29:21.516Z,1604.00
2019-03-22T15:30:21.470Z,1592.00
2019-03-22T15:31:21.394Z,1584.00
2019-03-22T15:32:21.285Z,1572.00
2019-03-22T15:33:21.213Z,1560.00
2019-03-22T15:34:21.118Z,1544.00
2019-03-22T15:35:21.282Z,1536.00
2019-03-22T15:36:21.012Z,1528.00
2019-03-22T15:37:21.064Z,1520.00
2019-03-22T15:38:21.071Z,1508.00
2019-03-22T15:39:21.026Z,1500.00
2019-03-22T15:40:20.664Z,1492.00
2019-03-22T15:41:20.646Z,1480.00
2019-03-22T15:42:20.545Z,1472.00
2019-03-22T15:43:20.443Z,1460.00
2019-03-22T15:44:20.479Z,1452.00
2019-03-22T15:45:20.329Z,1440.00
2019-03-22T15:46:20.324Z,1428.00
2019-03-22T15:47:20.173Z,1416.00
2019-03-22T15:48:20.157Z,1412.00
2019-03-22T15:49:20.024Z,1400.00
2019-03-22T15:50:19.948Z,1388.00
2019-03-22T15:51:19.886Z,1376.00
2019-03-22T15:52:19.825Z,1364.00
2019-03-22T15:53:19.784Z,1356.00
2019-03-22T15:54:19.665Z,1348.00
2019-03-22T15:55:19.585Z,1336.00
2019-03-22T15:56:19.547Z,1320.00
2019-03-22T15:57:19.466Z,1308.00
2019-03-22T15:58:19.407Z,1296.00
2019-03-22T15:59:19.353Z,1280.00
2019-03-22T16:00:19.218Z,1264.00
2019-03-22T16:01:19.204Z,1248.00
2019-03-22T16:02:19.132Z,1232.00
2019-03-22T16:03:19.087Z,1212.00
2019-03-22T16:04:18.995Z,1196.00
2019-03-22T16:05:18.860Z,1180.00
2019-03-22T16:06:18.801Z,1164.00
2019-03-22T16:07:18.761Z,1140.00
2019-03-22T16:08:18.640Z,1120.00
2019-03-22T16:09:18.576Z,1100.00
2019-03-22T16:10:18.538Z,1076.00
2019-03-22T16:11:18.472Z,1056.00
2019-03-22T16:12:18.400Z,1032.00
2019-03-22T16:13:18.320Z,1008.00
2019-03-22T16:14:18.223Z,984.00
2019-03-22T16:15:18.142Z,968.00
2019-03-22T16:16:18.062Z,944.00
2019-03-22T16:17:17.997Z,920.00
2019-03-22T16:18:17.957Z,896.00
2019-03-22T16:19:17.851Z,868.00
2019-03-22T16:20:17.794Z,844.00
2019-03-22T16:21:17.769Z,816.00
2019-03-22T16:22:17.739Z,784.00
2019-03-22T16:23:17.611Z,760.00
2019-03-22T16:24:17.497Z,728.00
2019-03-22T16:25:17.456Z,704.00
2019-03-22T16:26:17.346Z,676.00
2019-03-22T16:27:17.279Z,656.00
2019-03-22T16:28:17.281Z,628.00
2019-03-22T16:29:17.144Z,608.00
2019-03-22T16:30:17.121Z,584.00
2019-03-22T16:31:17.027Z,556.00
2019-03-22T16:32:16.920Z,532.00
2019-03-22T16:33:16.896Z,508.00
2019-03-22T16:34:16.766Z,480.00
2019-03-22T16:35:16.696Z,456.00
2019-03-22T16:36:16.686Z,428.00
2019-03-22T16:37:16.554Z,412.00
2019-03-22T16:38:16.497Z,392.00
2019-03-22T16:39:16.507Z,380.00
2019-03-22T16:40:23.801Z,364.00
2019-03-22T16:41:16.297Z,348.00
2019-03-22T16:42:16.197Z,336.00
2019-03-22T16:43:16.115Z,320.00
2019-03-22T16:44:16.114Z,312.00
2019-03-22T16:45:15.973Z,300.00
2019-03-22T16:46:15.917Z,284.00
2019-03-22T16:47:15.839Z,272.00
2019-03-22T16:48:15.752Z,256.00
2019-03-22T16:49:15.724Z,244.00
2019-03-22T16:50:15.609Z,236.00
2019-03-22T16:51:15.536Z,224.00
2019-03-22T16:52:15.486Z,216.00
2019-03-22T16:53:15.473Z,208.00
2019-03-22T16:54:15.874Z,204.00
2019-03-22T16:55:15.281Z,196.00
2019-03-22T16:56:15.173Z,188.00
2019-03-22T16:57:15.148Z,180.00
2019-03-22T16:58:15.078Z,172.00
2019-03-22T16:59:15.006Z,168.00
2019-03-22T17:00:14.879Z,160.00
2019-03-22T17:01:14.809Z,156.00
2019-03-22T17:02:14.781Z,144.00
2019-03-22T17:03:14.658Z,140.00
2019-03-22T17:04:14.591Z,132.00
2019-03-22T17:05:15.379Z,124.00
2019-03-22T17:06:14.482Z,120.00
2019-03-22T17:07:14.367Z,112.00
2019-03-22T17:08:14.302Z,108.00
2019-03-22T17:09:14.224Z,104.00
2019-03-22T17:10:14.146Z,100.00
2019-03-22T17:11:14.076Z,96.00
2019-03-22T17:12:14.066Z,88.00
2019-03-22T17:13:13.937Z,80.00
2019-03-22T17:14:13.853Z,68.00
2019-03-22T17:15:13.800Z,64.00
2019-03-22T17:16:13.715Z,56.00
2019-03-22T17:17:13.629Z,52.00
2019-03-22T17:18:13.633Z,44.00
2019-03-22T17:19:13.574Z,44.00
2019-03-22T17:20:13.462Z,40.00
2019-03-22T17:21:13.417Z,36.00
2019-03-22T17:22:13.319Z,36.00
2019-03-22T17:23:13.212Z,28.00
2019-03-22T17:24:13.169Z,28.00
2019-03-22T17:25:13.049Z,28.00
2019-03-22T17:26:12.972Z,24.00
2019-03-22T17:27:12.894Z,20.00
2019-03-22T17:28:12.834Z,20.00
2019-03-22T17:29:12.789Z,20.00
2019-03-22T17:30:12.757Z,16.00
2019-03-22T17:31:12.615Z,16.00
2019-03-22T17:32:12.531Z,12.00
2019-03-22T17:33:12.446Z,12.00
2019-03-22T17:34:14.444Z,12.00
2019-03-22T17:35:12.354Z,12.00
2019-03-22T17:36:12.232Z,8.00
2019-03-22T17:37:12.150Z,8.00
2019-03-22T17:38:12.107Z,8.00
2019-03-22T17:39:12.088Z,8.00
2019-03-22T17:40:11.974Z,8.00
2019-03-22T17:41:11.909Z,4.00
2019-03-22T17:42:11.783Z,4.00
2019-03-22T17:43:11.829Z,4.00
2019-03-22T17:44:11.633Z,0.00
2019-03-22T17:45:11.559Z,4.00
2019-03-22T17:46:11.535Z,4.00
2019-03-22T17:47:11.409Z,0.00
2019-03-22T17:48:11.469Z,4.00
2019-03-22T17:49:11.430Z,0.00
2019-03-22T17:50:11.182Z,4.00
2019-03-22T17:51:11.129Z,0.00
2019-03-22T17:52:11.095Z,0.00
2019-03-22T17:53:11.020Z,4.00
2019-03-22T17:54:11.046Z,0.00
2019-03-22T17:55:10.830Z,0.00
2019-03-22T17:56:10.773Z,0.00
2019-03-22T17:57:18.336Z,0.00
2019-03-22T17:58:10.651Z,0.00
2019-03-22T17:59:10.508Z,0.00
2019-03-22T18:00:10.535Z,0.00
2019-03-22T18:01:10.398Z,0.00
2019-03-22T18:02:10.280Z,0.00
2019-03-22T18:03:10.246Z,0.00
2019-03-22T18:04:10.193Z,0.00
2019-03-22T18:05:10.045Z,0.00
2019-03-22T18:06:09.971Z,0.00
2019-03-22T18:07:09.944Z,0.00
2019-03-22T18:08:09.891Z,0.00
2019-03-22T18:09:09.794Z,0.00
2019-03-22T18:10:09.905Z,0.00
2019-03-22T18:11:09.733Z,0.00
2019-03-22T18:12:09.590Z,0.00
2019-03-22T18:13:09.476Z,0.00
2019-03-22T18:14:09.625Z,0.00
2019-03-22T18:15:09.312Z,0.00
2019-03-22T18:16:09.319Z,0.00
2019-03-22T18:17:09.230Z,0.00
2019-03-22T18:18:09.238Z,0.00
2019-03-22T18:19:09.471Z,0.00
2019-03-22T18:20:08.962Z,0.00
2019-03-22T18:21:08.997Z,0.00
2019-03-22T18:22:08.772Z,0.00
2019-03-22T18:23:11.572Z,0.00
2019-03-22T18:24:09.104Z,0.00
2019-03-22T18:25:10.128Z,0.00
2019-03-22T18:26:17.323Z,0.00
2019-03-22T18:27:10.202Z,0.00
2019-03-22T18:28:09.914Z,0.00
2019-03-22T18:29:08.529Z,0.00
2019-03-22T18:30:08.183Z,0.00
2019-03-22T18:31:08.278Z,0.00
2019-03-22T18:32:08.155Z,0.00
2019-03-22T18:33:08.031Z,0.00
2019-03-22T18:34:08.006Z,0.00
2019-03-22T18:35:08.113Z,0.00
2019-03-22T18:36:07.693Z,0.00
2019-03-22T18:37:07.760Z,0.00
2019-03-22T18:38:07.602Z,0.00
2019-03-22T18:39:07.580Z,0.00
2019-03-22T18:40:07.664Z,0.00
2019-03-22T18:41:07.400Z,0.00
2019-03-22T18:42:07.334Z,0.00
2019-03-22T18:43:07.290Z,0.00
2019-03-22T18:44:07.165Z,0.00
2019-03-22T18:45:07.070Z,0.00
2019-03-22T18:46:07.076Z,0.00
2019-03-22T18:47:06.876Z,0.00
2019-03-22T18:48:06.984Z,0.00
2019-03-22T18:49:06.864Z,0.00
2019-03-22T18:50:06.726Z,0.00
2019-03-22T18:51:06.621Z,0.00
2019-03-22T18:52:08.171Z,0.00
2019-03-22T18:53:06.474Z,0.00
2019-03-22T18:54:06.289Z,0.00
2019-03-22T18:55:06.235Z,0.00
2019-03-22T18:56:06.196Z,0.00
2019-03-22T18:57:06.082Z,0.00
2019-03-22T18:58:05.989Z,0.00
2019-03-22T18:59:05.910Z,0.00
2019-03-22T19:00:05.940Z,0.00
2019-03-22T19:01:05.844Z,0.00
2019-03-22T19:02:05.724Z,0.00
2019-03-22T19:03:05.697Z,0.00
2019-03-22T19:04:05.740Z,0.00
2019-03-22T19:05:05.546Z,0.00
2019-03-22T19:06:05.408Z,0.00
2019-03-22T19:07:05.415Z,0.00
2019-03-22T19:08:05.215Z,0.00
2019-03-22T19:09:05.185Z,0.00
2019-03-22T19:10:05.248Z,0.00
2019-03-22T19:11:05.139Z,0.00
2019-03-22T19:12:04.947Z,0.00
2019-03-22T19:13:04.890Z,0.00
2019-03-22T19:14:04.742Z,0.00
2019-03-22T19:15:04.672Z,0.00
2019-03-22T19:16:04.633Z,0.00
2019-03-22T19:17:04.522Z,0.00
2019-03-22T19:18:04.459Z,0.00
2019-03-22T19:19:04.412Z,0.00
2019-03-22T19:20:04.278Z,0.00
2019-03-22T19:21:04.199Z,0.00
2019-03-22T19:22:04.232Z,0.00
2019-03-22T19:23:04.083Z,0.00
2019-03-22T19:24:04.006Z,0.00
2019-03-22T19:25:03.891Z,0.00
2019-03-22T19:26:03.872Z,0.00
2019-03-22T19:27:03.733Z,0.00
2019-03-22T19:28:03.656Z,0.00
2019-03-22T19:29:03.650Z,0.00
2019-03-22T19:30:03.516Z,0.00
2019-03-22T19:31:03.460Z,0.00
2019-03-22T19:32:13.143Z,0.00
2019-03-22T19:33:03.319Z,0.00
2019-03-22T19:34:03.227Z,0.00
2019-03-22T19:35:03.110Z,0.00
2019-03-22T19:36:03.087Z,0.00
2019-03-22T19:37:02.998Z,0.00
2019-03-22T19:38:02.916Z,0.00
2019-03-22T19:39:02.803Z,0.00
2019-03-22T19:40:02.722Z,0.00
2019-03-22T19:41:02.643Z,0.00
2019-03-22T19:42:02.566Z,0.00
2019-03-22T19:43:02.496Z,0.00
2019-03-22T19:44:02.412Z,0.00
2019-03-22T19:45:02.377Z,0.00
2019-03-22T19:46:02.283Z,0.00
2019-03-22T19:47:02.170Z,0.00
2019-03-22T19:48:02.093Z,0.00
2019-03-22T19:49:02.015Z,0.00
2019-03-22T19:50:01.933Z,0.00
2019-03-22T19:51:01.857Z,0.00
2019-03-22T19:52:01.822Z,0.00
2019-03-22T19:53:01.721Z,0.00
2019-03-22T19:54:01.671Z,0.00
2019-03-22T19:55:01.540Z,0.00
2019-03-22T19:56:01.461Z,0.00
2019-03-22T19:57:01.417Z,0.00
2019-03-22T19:58:01.370Z,0.00
2019-03-22T19:59:01.226Z,0.00
2019-03-22T20:00:01.159Z,0.00
2019-03-22T20:01:01.130Z,0.00
2019-03-22T20:02:01.049Z,0.00
2019-03-22T20:03:00.923Z,0.00
2019-03-22T20:04:00.847Z,0.00
2019-03-22T20:05:04.629Z,0.00
2019-03-22T20:06:00.760Z,0.00
2019-03-22T20:07:00.663Z,0.00
2019-03-22T20:08:00.602Z,0.00
2019-03-22T20:09:00.487Z,0.00
2019-03-22T20:10:00.428Z,0.00
2019-03-22T20:11:00.333Z,0.00
2019-03-22T20:12:00.209Z,0.00
2019-03-22T20:13:00.152Z,0.00
2019-03-22T20:14:00.097Z,0.00
2019-03-22T20:15:00.015Z,0.00
2019-03-22T20:15:59.925Z,0.00
2019-03-22T20:16:59.812Z,0.00
2019-03-22T20:17:59.798Z,0.00
2019-03-22T20:18:59.668Z,0.00
2019-03-22T20:19:59.576Z,0.00
2019-03-22T20:20:59.536Z,0.00
2019-03-22T20:21:59.423Z,0.00
2019-03-22T20:22:59.422Z,0.00
2019-03-22T20:23:59.271Z,0.00
2019-03-22T20:24:59.186Z,0.00
2019-03-22T20:25:59.105Z,0.00
2019-03-22T20:26:59.068Z,0.00
2019-03-22T20:27:58.942Z,0.00
2019-03-22T20:28:58.868Z,0.00
2019-03-22T20:29:58.804Z,0.00
2019-03-22T20:30:58.759Z,0.00
2019-03-22T20:31:58.645Z,0.00
2019-03-22T20:32:58.609Z,0.00
2019-03-22T20:33:58.518Z,0.00
2019-03-22T20:34:58.414Z,0.00
2019-03-22T20:35:58.356Z,0.00
2019-03-22T20:36:58.282Z,0.00
2019-03-22T20:37:58.219Z,0.00
2019-03-22T20:38:58.124Z,0.00
2019-03-22T20:39:58.003Z,0.00
2019-03-22T20:40:57.961Z,0.00
2019-03-22T20:41:57.913Z,0.00
2019-03-22T20:42:57.762Z,0.00
2019-03-22T20:43:57.683Z,0.00
2019-03-22T20:44:57.611Z,0.00
2019-03-22T20:45:57.530Z,0.00
2019-03-22T20:46:57.445Z,0.00
2019-03-22T20:47:57.437Z,0.00
2019-03-22T20:48:57.292Z,0.00
2019-03-22T20:49:57.214Z,0.00
2019-03-22T20:50:57.130Z,0.00
2019-03-22T20:51:57.051Z,0.00
2019-03-22T20:52:56.965Z,0.00
2019-03-22T20:53:56.892Z,0.00
2019-03-22T20:54:56.865Z,0.00
2019-03-22T20:55:56.766Z,0.00
2019-03-22T20:56:56.704Z,0.00
2019-03-22T20:57:56.583Z,0.00
2019-03-22T20:58:56.490Z,0.00
2019-03-22T20:59:56.442Z,0.00
2019-03-22T21:00:56.360Z,0.00
2019-03-22T21:01:56.265Z,0.00
2019-03-22T21:02:56.191Z,0.00
2019-03-22T21:03:56.132Z,0.00
2019-03-22T21:04:56.009Z,0.00
2019-03-22T21:05:55.954Z,0.00
2019-03-22T21:06:55.863Z,0.00
2019-03-22T21:07:55.825Z,0.00
2019-03-22T21:08:55.739Z,0.00
2019-03-22T21:09:55.663Z,0.00
2019-03-22T21:10:55.536Z,0.00
2019-03-22T21:11:55.515Z,0.00
2019-03-22T21:12:55.379Z,0.00
2019-03-22T21:13:55.298Z,0.00
2019-03-22T21:14:55.216Z,0.00
2019-03-22T21:15:55.143Z,0.00
2019-03-22T21:16:55.106Z,0.00
2019-03-22T21:17:54.980Z,0.00
2019-03-22T21:18:54.901Z,0.00
2019-03-22T21:19:54.856Z,0.00
2019-03-22T21:20:54.743Z,0.00
2019-03-22T21:21:54.677Z,0.00
2019-03-22T21:22:54.579Z,0.00
2019-03-22T21:23:54.502Z,0.00
2019-03-22T21:24:54.418Z,0.00
2019-03-22T21:25:54.335Z,0.00
2019-03-22T21:26:54.314Z,0.00
2019-03-22T21:27:54.222Z,0.00
2019-03-22T21:28:54.095Z,0.00
2019-03-22T21:29:54.023Z,0.00
2019-03-22T21:30:54.004Z,0.00
2019-03-22T21:31:53.957Z,0.00
2019-03-22T21:32:53.786Z,0.00
2019-03-22T21:33:53.730Z,0.00
2019-03-22T21:34:53.675Z,0.00
2019-03-22T21:35:53.607Z,0.00
2019-03-22T21:36:53.462Z,0.00
2019-03-22T21:37:53.393Z,0.00
2019-03-22T21:38:53.303Z,0.00
2019-03-22T21:39:53.264Z,0.00
2019-03-22T21:40:53.183Z,0.00
2019-03-22T21:41:53.075Z,0.00
2019-03-22T21:42:52.979Z,0.00
2019-03-22T21:43:52.903Z,0.00
2019-03-22T21:44:52.819Z,0.00
2019-03-22T21:45:52.772Z,0.00
2019-03-22T21:46:52.656Z,0.00
2019-03-22T21:47:52.632Z,0.00
2019-03-22T21:48:52.549Z,0.00
2019-03-22T21:49:52.459Z,0.00
2019-03-22T21:50:52.339Z,0.00
2019-03-22T21:51:52.258Z,0.00
2019-03-22T21:52:52.185Z,0.00
2019-03-22T21:53:52.151Z,0.00
2019-03-22T21:54:52.099Z,0.00
2019-03-22T21:55:54.140Z,0.00
2019-03-22T21:56:51.906Z,0.00
2019-03-22T21:57:51.778Z,0.00
2019-03-22T21:58:51.758Z,0.00
2019-03-22T21:59:51.673Z,0.00
2019-03-22T22:00:51.534Z,0.00
2019-03-22T22:01:51.460Z,0.00
2019-03-22T22:02:51.423Z,0.00
2019-03-22T22:03:51.294Z,0.00
2019-03-22T22:04:51.222Z,0.00
2019-03-22T22:05:51.179Z,0.00
2019-03-22T22:06:51.057Z,0.00
2019-03-22T22:07:51.021Z,0.00
2019-03-22T22:08:50.894Z,0.00
2019-03-22T22:09:50.848Z,0.00
2019-03-22T22:10:59.361Z,0.00
2019-03-22T22:11:50.716Z,0.00
2019-03-22T22:12:50.580Z,0.00
2019-03-22T22:13:50.498Z,0.00
2019-03-22T22:14:50.408Z,0.00
2019-03-22T22:15:50.344Z,0.00
2019-03-22T22:16:50.258Z,0.00
2019-03-22T22:17:50.169Z,0.00
2019-03-22T22:18:50.088Z,0.00
2019-03-22T22:19:50.034Z,0.00
2019-03-22T22:20:49.937Z,0.00
2019-03-22T22:21:49.886Z,0.00
2019-03-22T22:22:49.811Z,0.00
2019-03-22T22:23:49.692Z,0.00
2019-03-22T22:24:49.606Z,0.00
2019-03-22T22:25:49.574Z,0.00
2019-03-22T22:26:49.508Z,0.00
2019-03-22T22:27:49.408Z,0.00
2019-03-22T22:28:49.354Z,0.00
2019-03-22T22:29:49.271Z,0.00
2019-03-22T22:30:49.131Z,0.00
2019-03-22T22:31:49.046Z,0.00
2019-03-22T22:32:49.014Z,0.00
2019-03-22T22:33:48.897Z,0.00
2019-03-22T22:34:49.021Z,0.00
2019-03-22T22:35:58.133Z,0.00
2019-03-22T22:36:48.650Z,0.00
2019-03-22T22:37:48.606Z,0.00
2019-03-22T22:38:48.472Z,0.00
2019-03-22T22:39:48.456Z,0.00
2019-03-22T22:40:48.394Z,0.00
2019-03-22T22:41:48.236Z,0.00
2019-03-22T22:42:48.213Z,0.00
2019-03-22T22:43:48.135Z,0.00
2019-03-22T22:44:48.035Z,0.00
2019-03-22T22:45:47.915Z,0.00
2019-03-22T22:46:47.830Z,0.00
2019-03-22T22:47:47.752Z,0.00
2019-03-22T22:48:47.664Z,0.00
2019-03-22T22:49:48.384Z,0.00
2019-03-22T22:50:47.510Z,0.00
2019-03-22T22:51:47.514Z,0.00
2019-03-22T22:52:47.431Z,0.00
2019-03-22T22:53:47.278Z,0.00
2019-03-22T22:54:47.244Z,0.00
2019-03-22T22:55:47.098Z,0.00
2019-03-22T22:56:47.195Z,0.00
2019-03-22T22:57:46.939Z,0.00
2019-03-22T22:58:46.898Z,0.00
2019-03-22T22:59:46.785Z,0.00
2019-03-22T23:00:46.998Z,0.00
2019-03-22T23:01:46.672Z,0.00
2019-03-22T23:02:46.542Z,0.00
2019-03-22T23:03:46.464Z,0.00
2019-03-22T23:04:46.372Z,0.00
2019-03-22T23:05:46.292Z,0.00
2019-03-22T23:06:46.212Z,0.00
2019-03-22T23:07:46.135Z,0.00
2019-03-22T23:08:46.119Z,0.00
2019-03-22T23:09:46.049Z,0.00
2019-03-22T23:10:45.901Z,0.00
2019-03-22T23:11:45.802Z,0.00
2019-03-22T23:12:45.793Z,0.00
2019-03-22T23:13:45.642Z,0.00
2019-03-22T23:14:45.555Z,0.00
2019-03-22T23:15:45.548Z,0.00
2019-03-22T23:16:45.395Z,0.00
2019-03-22T23:17:45.374Z,0.00
2019-03-22T23:18:45.284Z,0.00
2019-03-22T23:19:45.184Z,0.00
2019-03-22T23:20:45.119Z,0.00
2019-03-22T23:21:44.991Z,0.00
2019-03-22T23:22:44.916Z,0.00
2019-03-22T23:23:44.830Z,0.00
2019-03-22T23:24:44.825Z,0.00
2019-03-22T23:25:44.667Z,0.00
2019-03-22T23:26:44.588Z,0.00
2019-03-22T23:27:44.571Z,0.00
2019-03-22T23:28:44.428Z,0.00
2019-03-22T23:29:44.408Z,0.00
2019-03-22T23:30:44.325Z,0.00
2019-03-22T23:31:45.902Z,0.00
2019-03-22T23:32:44.143Z,0.00
2019-03-22T23:33:44.041Z,0.00
2019-03-22T23:34:43.988Z,0.00
2019-03-22T23:35:43.865Z,0.00
2019-03-22T23:36:43.779Z,0.00
2019-03-22T23:37:43.756Z,0.00
2019-03-22T23:38:43.616Z,0.00
2019-03-22T23:39:43.531Z,0.00
2019-03-22T23:40:43.495Z,0.00
2019-03-22T23:41:43.445Z,0.00
2019-03-22T23:42:43.313Z,0.00
2019-03-22T23:43:43.212Z,0.00
2019-03-22T23:44:43.128Z,0.00
2019-03-22T23:45:43.040Z,0.00
2019-03-22T23:46:43.002Z,0.00
2019-03-22T23:47:42.929Z,0.00
2019-03-22T23:48:42.843Z,0.00
2019-03-22T23:49:42.761Z,0.00
2019-03-22T23:50:42.671Z,0.00
2019-03-22T23:51:42.545Z,0.00
2019-03-22T23:52:42.471Z,0.00
2019-03-22T23:53:42.391Z,0.00
2019-03-22T23:54:42.313Z,0.00
2019-03-22T23:55:42.279Z,0.00
2019-03-22T23:56:42.155Z,0.00
2019-03-22T23:57:42.059Z,0.00
2019-03-22T23:58:41.989Z,0.00
2019-03-22T23:59:41.892Z,0.00
